Time;durP1;ratioP1;P1;durP2;ratioP2;P2;SDS_P1;SDS_P2;PMS_P1;PMS_P2;Temp;Humidity;BMP_temperature;BMP_pressure;BME280_temperature;BME280_humidity;BME280_pressure;Samples;Min_cycle;Max_cycle;Signal;HPM_P1;HPM_P2
2023/12/27 00:00:46;;;;;;;;;;;15.10;70.50;;;;;;7328514;19;9405;-61
2023/12/27 00:03:17;;;;;;;;;;;15.10;70.60;;;;;;7326936;19;9226;-61
2023/12/27 00:05:46;;;;;;;;;;;15.00;70.60;;;;;;7327814;19;9487;-61
2023/12/27 00:08:15;;;;;;;;;;;15.10;70.70;;;;;;7327142;19;9465;-61
2023/12/27 00:10:45;;;;;;;;;;;15.00;70.70;;;;;;7327725;19;9545;-60
2023/12/27 00:13:14;;;;;;;;;;;15.00;70.80;;;;;;7326802;19;9477;-61
2023/12/27 00:15:45;;;;;;;;;;;15.00;70.80;;;;;;7325219;19;10743;-61
2023/12/27 00:18:18;;;;;;;;;;;14.90;70.80;;;;;;7327031;19;9471;-61
2023/12/27 00:20:49;;;;;;;;;;;14.90;70.80;;;;;;7326470;19;9310;-61
2023/12/27 00:23:18;;;;;;;;;;;14.90;70.80;;;;;;7327638;19;9527;-61
2023/12/27 00:25:47;;;;;;;;;;;14.90;71.00;;;;;;7326935;19;9434;-61
2023/12/27 00:28:16;;;;;;;;;;;14.90;70.90;;;;;;7326658;19;9429;-61
2023/12/27 00:30:48;;;;;;;;;;;14.80;70.80;;;;;;7326374;19;9589;-61
2023/12/27 00:33:20;;;;;;;;;;;14.80;70.90;;;;;;7327461;19;9156;-61
2023/12/27 00:36:12;;;;;;;;;;;14.90;71.00;;;;;;7325549;19;9501;-61
2023/12/27 00:38:41;;;;;;;;;;;14.90;71.00;;;;;;7327044;19;9527;-61
2023/12/27 00:41:10;;;;;;;;;;;14.90;71.10;;;;;;7326775;19;9405;-61
2023/12/27 00:43:38;;;;;;;;;;;14.90;70.90;;;;;;7325505;19;9510;-61
2023/12/27 00:46:09;;;;;;;;;;;14.90;70.80;;;;;;7326836;19;9474;-61
2023/12/27 00:48:40;;;;;;;;;;;15.00;70.70;;;;;;7326534;19;9470;-61
2023/12/27 00:51:20;;;;;;;;;;;15.00;70.80;;;;;;7326787;19;9225;-61
2023/12/27 00:53:50;;;;;;;;;;;15.10;70.50;;;;;;7326750;19;9517;-61
2023/12/27 00:56:19;;;;;;;;;;;15.20;70.40;;;;;;7325960;19;9445;-61
2023/12/27 00:58:48;;;;;;;;;;;15.30;70.30;;;;;;7327338;19;9163;-61
2023/12/27 01:01:17;;;;;;;;;;;15.30;70.20;;;;;;7325765;19;9227;-61
2023/12/27 01:03:48;;;;;;;;;;;15.30;70.10;;;;;;7326633;19;9131;-61
2023/12/27 01:06:17;;;;;;;;;;;15.40;70.00;;;;;;7325773;19;9728;-61
2023/12/27 01:08:46;;;;;;;;;;;15.50;70.00;;;;;;7326725;19;8953;-60
2023/12/27 01:11:16;;;;;;;;;;;15.60;69.90;;;;;;7324936;19;9579;-60
2023/12/27 01:13:45;;;;;;;;;;;15.60;69.80;;;;;;7326022;19;9682;-61
2023/12/27 01:16:15;;;;;;;;;;;15.60;69.70;;;;;;7325363;19;10514;-60
2023/12/27 01:18:44;;;;;;;;;;;15.60;69.60;;;;;;7325821;19;10079;-61
2023/12/27 01:21:15;;;;;;;;;;;15.70;69.50;;;;;;7325443;19;9264;-61
2023/12/27 01:24:04;;;;;;;;;;;15.70;69.50;;;;;;7323659;19;9595;-61
2023/12/27 01:26:33;;;;;;;;;;;15.70;69.40;;;;;;7325754;19;9497;-61
2023/12/27 01:29:02;;;;;;;;;;;15.70;69.30;;;;;;7325532;19;9565;-61
2023/12/27 01:31:51;;;;;;;;;;;15.80;69.20;;;;;;7324100;19;10483;-61
2023/12/27 01:34:20;;;;;;;;;;;15.80;69.30;;;;;;7326055;19;9766;-61
2023/12/27 01:36:52;;;;;;;;;;;15.80;69.30;;;;;;7325573;19;9232;-61
2023/12/27 01:39:22;;;;;;;;;;;15.70;69.20;;;;;;7325653;19;9398;-61
2023/12/27 01:41:51;;;;;;;;;;;15.70;69.20;;;;;;7325086;19;9325;-61
2023/12/27 01:44:20;;;;;;;;;;;15.70;69.30;;;;;;7325129;19;9496;-61
2023/12/27 01:46:49;;;;;;;;;;;15.70;69.40;;;;;;7325127;19;9225;-61
2023/12/27 01:49:21;;;;;;;;;;;15.60;69.40;;;;;;7325168;19;9162;-61
2023/12/27 01:51:53;;;;;;;;;;;15.50;69.30;;;;;;7324606;19;9259;-61
2023/12/27 01:54:22;;;;;;;;;;;15.50;69.40;;;;;;7321811;19;10281;-61
2023/12/27 01:56:53;;;;;;;;;;;15.50;69.40;;;;;;7324616;19;9486;-61
2023/12/27 01:59:31;;;;;;;;;;;15.40;69.50;;;;;;7325051;19;10378;-61
2023/12/27 02:02:10;;;;;;;;;;;15.40;69.60;;;;;;7324264;19;10376;-61
2023/12/27 02:04:38;;;;;;;;;;;15.40;69.60;;;;;;7324218;19;9504;-61
2023/12/27 02:07:24;;;;;;;;;;;15.40;69.60;;;;;;7325015;19;9234;-60
2023/12/27 02:09:57;;;;;;;;;;;15.30;69.70;;;;;;7323481;19;9513;-61
2023/12/27 02:12:30;;;;;;;;;;;15.30;70.30;;;;;;7324562;19;9070;-61
2023/12/27 02:15:08;;;;;;;;;;;15.20;69.80;;;;;;7324944;19;9622;-61
2023/12/27 02:17:39;;;;;;;;;;;15.20;69.80;;;;;;7324045;19;9243;-61
2023/12/27 02:20:10;;;;;;;;;;;15.20;69.90;;;;;;7324701;19;9533;-61
2023/12/27 02:22:52;;;;;;;;;;;15.10;69.90;;;;;;7323188;19;9439;-61
2023/12/27 02:25:25;;;;;;;;;;;15.10;70.00;;;;;;7323718;19;9169;-61
2023/12/27 02:27:56;;;;;;;;;;;15.10;70.10;;;;;;7324023;19;9535;-61
2023/12/27 02:30:40;;;;;;;;;;;15.10;70.10;;;;;;7323669;19;10638;-61
2023/12/27 02:33:09;;;;;;;;;;;15.00;70.70;;;;;;7323355;19;9665;-61
2023/12/27 02:35:54;;;;;;;;;;;15.00;70.20;;;;;;7323805;19;9449;-61
2023/12/27 02:38:31;;;;;;;;;;;15.00;70.20;;;;;;7327652;19;9402;-61
2023/12/27 02:41:06;;;;;;;;;;;15.00;70.30;;;;;;7337499;19;9466;-61
2023/12/27 02:43:35;;;;;;;;;;;14.90;70.20;;;;;;7336780;19;9171;-61
2023/12/27 02:46:05;;;;;;;;;;;14.90;70.30;;;;;;7337104;19;9449;-60
2023/12/27 02:48:33;;;;;;;;;;;14.90;70.30;;;;;;7337691;19;9172;-61
2023/12/27 02:51:03;;;;;;;;;;;14.90;70.40;;;;;;7336599;19;9445;-61
2023/12/27 02:53:52;;;;;;;;;;;14.90;70.40;;;;;;7335088;19;9202;-61
2023/12/27 02:56:23;;;;;;;;;;;14.90;70.40;;;;;;7337217;19;9237;-61
2023/12/27 02:58:52;;;;;;;;;;;14.90;70.40;;;;;;7336711;19;9296;-61
2023/12/27 03:01:21;;;;;;;;;;;14.90;70.30;;;;;;7336806;19;9500;-60
2023/12/27 03:03:50;;;;;;;;;;;15.00;70.30;;;;;;7336959;19;9418;-61
2023/12/27 03:06:19;;;;;;;;;;;15.00;70.20;;;;;;7336902;19;9445;-61
2023/12/27 03:08:51;;;;;;;;;;;15.10;70.10;;;;;;7335600;19;9543;-61
2023/12/27 03:11:43;;;;;;;;;;;15.20;70.00;;;;;;7335351;19;9275;-61
2023/12/27 03:14:13;;;;;;;;;;;15.20;69.90;;;;;;7336289;19;9457;-61
2023/12/27 03:16:42;;;;;;;;;;;15.30;69.70;;;;;;7336616;19;9618;-61
2023/12/27 03:19:11;;;;;;;;;;;15.30;69.60;;;;;;7336085;19;9179;-61
2023/12/27 03:21:40;;;;;;;;;;;15.40;69.60;;;;;;7335012;19;9440;-61
2023/12/27 03:24:09;;;;;;;;;;;15.40;69.50;;;;;;7336786;19;9222;-60
2023/12/27 03:26:38;;;;;;;;;;;15.50;69.40;;;;;;7335404;19;9542;-61
2023/12/27 03:29:10;;;;;;;;;;;15.60;69.40;;;;;;7336048;19;9499;-61
2023/12/27 03:31:39;;;;;;;;;;;15.60;69.20;;;;;;7335375;19;9469;-61
2023/12/27 03:34:08;;;;;;;;;;;15.60;69.50;;;;;;7336284;19;9112;-61
2023/12/27 03:36:37;;;;;;;;;;;15.60;69.10;;;;;;7334386;19;9509;-61
2023/12/27 03:39:06;;;;;;;;;;;15.70;69.10;;;;;;7335154;19;9506;-61
2023/12/27 03:41:35;;;;;;;;;;;15.70;69.00;;;;;;7335310;19;9197;-61
2023/12/27 03:44:13;;;;;;;;;;;15.60;69.00;;;;;;7335913;19;9457;-61
2023/12/27 03:46:42;;;;;;;;;;;15.70;68.90;;;;;;7335317;19;9437;-61
2023/12/27 03:49:37;;;;;;;;;;;15.60;68.90;;;;;;7329178;19;9501;-61
2023/12/27 03:52:09;;;;;;;;;;;15.60;68.90;;;;;;7327493;19;9400;-61
2023/12/27 03:54:45;;;;;;;;;;;15.50;68.90;;;;;;7326673;19;10299;-61
2023/12/27 03:57:15;;;;;;;;;;;15.50;69.00;;;;;;7327707;19;9210;-61
2023/12/27 03:59:49;;;;;;;;;;;15.50;69.10;;;;;;7328465;19;9411;-61
2023/12/27 04:02:22;;;;;;;;;;;15.40;69.00;;;;;;7326742;19;9274;-61
2023/12/27 04:04:57;;;;;;;;;;;15.40;69.10;;;;;;7327450;19;10620;-61
2023/12/27 04:07:47;;;;;;;;;;;15.40;69.10;;;;;;7326153;19;9496;-61
2023/12/27 04:10:16;;;;;;;;;;;15.30;69.20;;;;;;7327240;19;9450;-61
2023/12/27 04:13:01;;;;;;;;;;;15.30;69.20;;;;;;7327325;19;9565;-61
2023/12/27 04:15:34;;;;;;;;;;;15.30;69.30;;;;;;7326819;19;9453;-61
2023/12/27 04:18:20;;;;;;;;;;;15.30;69.30;;;;;;7327856;19;9594;-61
2023/12/27 04:20:57;;;;;;;;;;;15.20;69.40;;;;;;7326787;19;10564;-61
2023/12/27 04:23:31;;;;;;;;;;;15.20;69.40;;;;;;7327387;19;9281;-61
2023/12/27 04:26:00;;;;;;;;;;;15.10;69.40;;;;;;7327699;19;9504;-61
2023/12/27 04:28:50;;;;;;;;;;;15.10;69.50;;;;;;7326691;19;9198;-60
2023/12/27 04:31:47;;;;;;;;;;;15.10;69.60;;;;;;7323103;19;9186;-60
2023/12/27 04:34:23;;;;;;;;;;;15.10;69.70;;;;;;7324429;19;9474;-61
2023/12/27 04:37:00;;;;;;;;;;;15.00;69.80;;;;;;7326843;19;10605;-61
2023/12/27 04:39:32;;;;;;;;;;;15.00;69.80;;;;;;7326858;19;9549;-61
2023/12/27 04:42:13;;;;;;;;;;;14.90;69.80;;;;;;7327422;19;9728;-61
2023/12/27 04:44:45;;;;;;;;;;;15.00;69.90;;;;;;7325237;19;9289;-61
2023/12/27 04:47:31;;;;;;;;;;;14.90;69.80;;;;;;7326940;19;9473;-61
2023/12/27 04:50:08;;;;;;;;;;;14.90;69.90;;;;;;7325615;19;9451;-61
2023/12/27 04:52:38;;;;;;;;;;;14.90;69.90;;;;;;7325464;19;9263;-61
2023/12/27 04:55:22;;;;;;;;;;;14.90;70.00;;;;;;7326916;19;9803;-61
2023/12/27 04:57:52;;;;;;;;;;;14.90;70.00;;;;;;7326342;19;9478;-61
2023/12/27 05:00:24;;;;;;;;;;;14.90;69.90;;;;;;7325831;19;9383;-61
2023/12/27 05:03:03;;;;;;;;;;;15.00;69.80;;;;;;7323561;19;11684;-61
2023/12/27 05:05:34;;;;;;;;;;;15.00;69.70;;;;;;7325599;19;9524;-61
2023/12/27 05:08:15;;;;;;;;;;;15.10;69.70;;;;;;7326723;19;10321;-61
2023/12/27 05:11:02;;;;;;;;;;;15.10;69.60;;;;;;7325213;19;9646;-62
2023/12/27 05:13:35;;;;;;;;;;;15.20;69.40;;;;;;7325873;19;9226;-61
2023/12/27 05:16:13;;;;;;;;;;;15.30;69.40;;;;;;7326375;19;10764;-61
2023/12/27 05:18:46;;;;;;;;;;;15.30;69.30;;;;;;7325095;19;9134;-61
2023/12/27 05:21:42;;;;;;;;;;;15.40;69.30;;;;;;7324562;19;9310;-61
2023/12/27 05:24:11;;;;;;;;;;;15.50;69.20;;;;;;7326667;19;10632;-61
2023/12/27 05:26:41;;;;;;;;;;;15.50;69.10;;;;;;7324990;19;9457;-61
2023/12/27 05:29:13;;;;;;;;;;;15.60;69.10;;;;;;7325888;19;10711;-61
2023/12/27 05:31:44;;;;;;;;;;;15.60;68.90;;;;;;7324953;19;9281;-62
2023/12/27 05:34:16;;;;;;;;;;;15.70;68.90;;;;;;7325242;19;10437;-61
2023/12/27 05:37:02;;;;;;;;;;;15.70;68.90;;;;;;7325495;19;10845;-61
2023/12/27 05:39:44;;;;;;;;;;;15.70;68.80;;;;;;7324804;19;9373;-61
2023/12/27 05:42:24;;;;;;;;;;;15.70;68.70;;;;;;7325699;19;9184;-61
2023/12/27 05:44:54;;;;;;;;;;;15.80;68.60;;;;;;7324523;19;10666;-61
2023/12/27 05:47:37;;;;;;;;;;;15.80;68.60;;;;;;7325196;19;9347;-61
2023/12/27 05:50:14;;;;;;;;;;;15.80;68.50;;;;;;7324735;19;9262;-61
2023/12/27 05:53:09;;;;;;;;;;;15.70;68.50;;;;;;7323316;19;9553;-61
2023/12/27 05:55:47;;;;;;;;;;;15.80;68.40;;;;;;7325168;19;9225;-61
2023/12/27 05:58:16;;;;;;;;;;;15.80;68.50;;;;;;7325476;19;9675;-61
2023/12/27 06:00:50;;;;;;;;;;;15.70;68.50;;;;;;7324851;19;9515;-61
2023/12/27 06:03:25;;;;;;;;;;;15.70;68.40;;;;;;7325177;19;9238;-61
2023/12/27 06:06:01;;;;;;;;;;;15.70;68.50;;;;;;7324628;19;9508;-61
2023/12/27 06:08:37;;;;;;;;;;;15.60;68.50;;;;;;7324657;19;9469;-61
2023/12/27 06:11:19;;;;;;;;;;;15.60;68.60;;;;;;7324905;19;9629;-61
2023/12/27 06:14:09;;;;;;;;;;;15.50;69.20;;;;;;7322710;19;9556;-61
2023/12/27 06:17:03;;;;;;;;;;;15.50;68.70;;;;;;7324446;19;9461;-61
2023/12/27 06:19:40;;;;;;;;;;;15.40;68.70;;;;;;7324410;19;9514;-61
2023/12/27 06:22:21;;;;;;;;;;;15.40;68.80;;;;;;7324334;19;9477;-61
2023/12/27 06:24:50;;;;;;;;;;;15.40;68.80;;;;;;7323845;19;9698;-61
2023/12/27 06:27:45;;;;;;;;;;;15.30;68.80;;;;;;7325107;19;9441;-61
2023/12/27 06:30:24;;;;;;;;;;;15.30;68.80;;;;;;7321311;19;9487;-61
2023/12/27 06:32:58;;;;;;;;;;;15.30;69.00;;;;;;7324156;19;9465;-61
2023/12/27 06:35:37;;;;;;;;;;;15.20;69.00;;;;;;7324404;19;9362;-61
2023/12/27 06:38:20;;;;;;;;;;;15.20;69.00;;;;;;7323204;19;9621;-61
2023/12/27 06:40:52;;;;;;;;;;;15.10;69.10;;;;;;7324042;19;9281;-61
2023/12/27 06:43:25;;;;;;;;;;;15.10;69.20;;;;;;7324039;19;9516;-61
2023/12/27 06:46:00;;;;;;;;;;;15.10;69.20;;;;;;7322095;19;9217;-61
2023/12/27 06:48:32;;;;;;;;;;;15.10;69.40;;;;;;7324467;19;9366;-61
2023/12/27 06:51:10;;;;;;;;;;;15.10;69.40;;;;;;7322986;19;10553;-61
2023/12/27 06:53:49;;;;;;;;;;;15.00;69.50;;;;;;7323199;19;9186;-61
2023/12/27 06:56:42;;;;;;;;;;;15.00;69.50;;;;;;7323324;19;9202;-61
2023/12/27 06:59:31;;;;;;;;;;;15.00;69.60;;;;;;7321499;19;9688;-61
2023/12/27 07:02:28;;;;;;;;;;;14.90;69.50;;;;;;7321681;19;9340;-60
2023/12/27 07:05:07;;;;;;;;;;;14.90;69.60;;;;;;7323246;19;9270;-60
2023/12/27 07:07:59;;;;;;;;;;;14.80;69.60;;;;;;7322520;19;9266;-61
2023/12/27 07:10:41;;;;;;;;;;;14.90;69.70;;;;;;7321940;19;9669;-61
2023/12/27 07:13:33;;;;;;;;;;;14.90;69.70;;;;;;7322790;19;9521;-61
2023/12/27 07:16:13;;;;;;;;;;;14.90;69.60;;;;;;7321571;19;9893;-61
2023/12/27 07:18:51;;;;;;;;;;;15.00;69.50;;;;;;7322311;19;9351;-60
2023/12/27 07:21:27;;;;;;;;;;;15.00;69.40;;;;;;7322641;19;9303;-60
2023/12/27 07:23:56;;;;;;;;;;;15.10;69.40;;;;;;7323405;19;9488;-60
2023/12/27 07:26:32;;;;;;;;;;;15.20;69.30;;;;;;7329549;19;11093;-60
2023/12/27 07:29:09;;;;;;;;;;;15.20;69.20;;;;;;7329218;19;10546;-60
2023/12/27 07:31:55;;;;;;;;;;;15.30;69.10;;;;;;7328501;19;9448;-60
2023/12/27 07:34:51;;;;;;;;;;;15.40;69.00;;;;;;7329029;19;9354;-60
2023/12/27 07:37:46;;;;;;;;;;;15.40;69.00;;;;;;7329043;19;9443;-60
2023/12/27 07:40:25;;;;;;;;;;;15.50;68.90;;;;;;7328658;19;9497;-60
2023/12/27 07:42:58;;;;;;;;;;;15.50;68.70;;;;;;7328129;19;10336;-60
2023/12/27 07:45:33;;;;;;;;;;;15.60;68.70;;;;;;7328508;19;9603;-60
2023/12/27 07:48:28;;;;;;;;;;;15.60;68.60;;;;;;7328116;19;9584;-60
2023/12/27 07:51:03;;;;;;;;;;;15.60;68.50;;;;;;7322964;19;10383;-60
2023/12/27 07:53:38;;;;;;;;;;;15.60;68.40;;;;;;7324482;19;9437;-60
2023/12/27 07:56:18;;;;;;;;;;;15.70;68.40;;;;;;7323663;19;9248;-60
2023/12/27 07:58:56;;;;;;;;;;;15.70;68.30;;;;;;7327704;19;10419;-60
2023/12/27 08:01:55;;;;;;;;;;;15.70;68.30;;;;;;7327839;19;10673;-60
2023/12/27 08:04:37;;;;;;;;;;;15.60;68.20;;;;;;7326559;19;9524;-60
2023/12/27 08:07:08;;;;;;;;;;;15.60;68.20;;;;;;7327018;19;9324;-60
2023/12/27 08:10:01;;;;;;;;;;;15.60;68.30;;;;;;7327404;19;9581;-60
2023/12/27 08:12:44;;;;;;;;;;;15.60;68.30;;;;;;7326714;19;9350;-60
2023/12/27 08:15:31;;;;;;;;;;;15.50;68.30;;;;;;7326365;19;9368;-60
2023/12/27 08:18:15;;;;;;;;;;;15.50;68.40;;;;;;7327924;19;10446;-61
2023/12/27 08:21:05;;;;;;;;;;;15.50;68.50;;;;;;7326983;19;9393;-60
2023/12/27 08:23:57;;;;;;;;;;;15.40;68.50;;;;;;7325141;19;9214;-60
2023/12/27 08:26:27;;;;;;;;;;;15.40;68.60;;;;;;7326482;19;9215;-60
2023/12/27 08:29:13;;;;;;;;;;;15.30;68.60;;;;;;7327080;19;10402;-61
2023/12/27 08:32:25;;;;;;;;;;;15.30;69.20;;;;;;7325349;19;9618;-60
2023/12/27 08:35:26;;;;;;;;;;;15.30;68.70;;;;;;7323594;19;9641;-60
2023/12/27 08:38:05;;;;;;;;;;;15.20;68.70;;;;;;7326405;19;9460;-61
2023/12/27 08:40:58;;;;;;;;;;;15.20;68.80;;;;;;7326301;19;10617;-60
2023/12/27 08:43:37;;;;;;;;;;;15.20;68.90;;;;;;7326186;19;9672;-60
2023/12/27 08:46:09;;;;;;;;;;;15.10;68.90;;;;;;7326336;19;8996;-60
2023/12/27 08:48:40;;;;;;;;;;;15.10;69.00;;;;;;7326882;19;9456;-60
2023/12/27 08:51:09;;;;;;;;;;;15.10;69.10;;;;;;7326611;19;9577;-60
2023/12/27 08:53:38;;;;;;;;;;;15.10;69.10;;;;;;7326990;19;9405;-60
2023/12/27 08:56:08;;;;;;;;;;;15.00;69.10;;;;;;7325090;19;9384;-60
2023/12/27 08:58:37;;;;;;;;;;;15.00;69.20;;;;;;7326518;19;9311;-60
2023/12/27 09:01:06;;;;;;;;;;;15.00;69.20;;;;;;7325899;19;9445;-60
2023/12/27 09:03:35;;;;;;;;;;;15.00;69.30;;;;;;7326345;19;10951;-60
2023/12/27 09:06:07;;;;;;;;;;;14.90;69.30;;;;;;7326467;19;9355;-60
2023/12/27 09:08:38;;;;;;;;;;;14.90;69.40;;;;;;7326115;19;9249;-60
2023/12/27 09:11:07;;;;;;;;;;;15.00;69.40;;;;;;7325776;19;10671;-60
2023/12/27 09:13:36;;;;;;;;;;;15.00;69.40;;;;;;7325076;19;9173;-60
2023/12/27 09:16:25;;;;;;;;;;;15.00;69.30;;;;;;7324038;19;9790;-60
2023/12/27 09:18:54;;;;;;;;;;;15.00;69.20;;;;;;7325512;19;9718;-61
2023/12/27 09:21:26;;;;;;;;;;;15.10;69.20;;;;;;7325691;19;9771;-61
2023/12/27 09:23:56;;;;;;;;;;;15.20;69.10;;;;;;7324934;19;9478;-60
2023/12/27 09:26:25;;;;;;;;;;;15.20;69.00;;;;;;7324929;19;9490;-60
2023/12/27 09:28:54;;;;;;;;;;;15.30;68.90;;;;;;7325273;19;10599;-60
2023/12/27 09:31:29;;;;;;;;;;;15.30;68.90;;;;;;7324689;19;9672;-60
2023/12/27 09:33:59;;;;;;;;;;;15.40;68.80;;;;;;7325580;19;9437;-60
2023/12/27 09:36:32;;;;;;;;;;;15.50;68.80;;;;;;7323380;19;9221;-61
2023/12/27 09:39:01;;;;;;;;;;;15.50;68.60;;;;;;7324383;19;9221;-60
2023/12/27 09:41:30;;;;;;;;;;;15.60;68.70;;;;;;7323726;19;9195;-61
2023/12/27 09:44:01;;;;;;;;;;;15.60;68.50;;;;;;7324176;19;11374;-61
2023/12/27 09:46:33;;;;;;;;;;;15.70;68.50;;;;;;7324216;19;9296;-61
2023/12/27 09:49:02;;;;;;;;;;;15.70;68.40;;;;;;7321506;19;9309;-60
2023/12/27 09:51:35;;;;;;;;;;;15.70;68.30;;;;;;7323658;19;9471;-61
2023/12/27 09:54:04;;;;;;;;;;;15.70;68.30;;;;;;7323615;19;9746;-61
2023/12/27 09:56:35;;;;;;;;;;;15.70;68.20;;;;;;7324425;19;9574;-61
2023/12/27 09:59:10;;;;;;;;;;;15.70;68.20;;;;;;7323212;19;9187;-60
2023/12/27 10:01:42;;;;;;;;;;;15.80;68.20;;;;;;7323940;19;9469;-61
2023/12/27 10:04:23;;;;;;;;;;;15.70;68.10;;;;;;7323561;19;9409;-61
2023/12/27 10:06:57;;;;;;;;;;;15.70;68.00;;;;;;7323674;19;9295;-61
2023/12/27 10:09:26;;;;;;;;;;;15.70;68.10;;;;;;7323579;19;9460;-61
2023/12/27 10:11:56;;;;;;;;;;;15.70;68.10;;;;;;7323444;19;9250;-61
2023/12/27 10:14:47;;;;;;;;;;;15.70;68.10;;;;;;7322632;19;9565;-61
2023/12/27 10:17:16;;;;;;;;;;;15.70;68.10;;;;;;7322879;19;9528;-60
2023/12/27 10:19:46;;;;;;;;;;;15.60;68.20;;;;;;7324002;19;9424;-62
2023/12/27 10:22:18;;;;;;;;;;;15.60;68.20;;;;;;7322706;19;9441;-60
2023/12/27 10:24:47;;;;;;;;;;;15.50;68.20;;;;;;7323532;19;9556;-61
2023/12/27 10:27:16;;;;;;;;;;;15.50;68.30;;;;;;7323175;19;9261;-60
2023/12/27 10:29:49;;;;;;;;;;;15.50;68.30;;;;;;7323180;19;9400;-61
2023/12/27 10:32:19;;;;;;;;;;;15.50;68.50;;;;;;7322980;19;9419;-60
2023/12/27 10:34:50;;;;;;;;;;;15.50;68.50;;;;;;7322273;19;9544;-61
2023/12/27 10:37:22;;;;;;;;;;;15.40;68.50;;;;;;7322934;19;9240;-61
2023/12/27 10:39:51;;;;;;;;;;;15.40;68.70;;;;;;7322074;19;10827;-61
2023/12/27 10:42:26;;;;;;;;;;;15.40;68.70;;;;;;7323005;19;9131;-61
2023/12/27 10:44:55;;;;;;;;;;;15.30;68.70;;;;;;7322801;19;9152;-61
2023/12/27 10:47:28;;;;;;;;;;;15.30;68.70;;;;;;7323156;19;9245;-61
2023/12/27 10:50:02;;;;;;;;;;;15.30;68.80;;;;;;7323265;19;9578;-60
2023/12/27 10:52:36;;;;;;;;;;;15.20;68.80;;;;;;7322309;19;9557;-61
2023/12/27 10:55:08;;;;;;;;;;;15.20;68.90;;;;;;7322102;19;9639;-60
2023/12/27 10:57:39;;;;;;;;;;;15.20;68.90;;;;;;7321376;19;9531;-60
2023/12/27 11:00:10;;;;;;;;;;;15.10;68.90;;;;;;7325825;19;9237;-61
2023/12/27 11:02:40;;;;;;;;;;;15.10;69.00;;;;;;7327895;19;9477;-61
2023/12/27 11:05:10;;;;;;;;;;;15.10;69.00;;;;;;7329025;19;9369;-61
2023/12/27 11:07:43;;;;;;;;;;;15.10;69.10;;;;;;7328205;19;9179;-60
2023/12/27 11:10:15;;;;;;;;;;;15.10;69.10;;;;;;7328399;19;9519;-61
2023/12/27 11:12:45;;;;;;;;;;;15.10;69.20;;;;;;7328021;19;9462;-60
2023/12/27 11:15:18;;;;;;;;;;;15.00;69.20;;;;;;7326918;19;9459;-61
2023/12/27 11:17:50;;;;;;;;;;;15.00;69.30;;;;;;7328810;19;9330;-60
2023/12/27 11:20:20;;;;;;;;;;;15.00;69.30;;;;;;7327477;19;9429;-61
2023/12/27 11:22:53;;;;;;;;;;;15.00;69.40;;;;;;7328398;19;9617;-60
2023/12/27 11:25:22;;;;;;;;;;;15.00;69.40;;;;;;7326806;19;9532;-61
2023/12/27 11:27:52;;;;;;;;;;;15.00;69.30;;;;;;7328257;19;9250;-60
2023/12/27 11:30:24;;;;;;;;;;;15.10;70.00;;;;;;7327714;19;9206;-60
2023/12/27 11:33:19;;;;;;;;;;;15.00;69.20;;;;;;7325663;19;9456;-61
2023/12/27 11:35:49;;;;;;;;;;;15.20;69.30;;;;;;7327459;19;9645;-60
2023/12/27 11:38:23;;;;;;;;;;;15.20;69.10;;;;;;7327978;19;10683;-60
2023/12/27 11:40:55;;;;;;;;;;;15.30;69.00;;;;;;7327928;19;9216;-60
2023/12/27 11:43:25;;;;;;;;;;;15.30;69.00;;;;;;7328122;19;9422;-60
2023/12/27 11:45:59;;;;;;;;;;;15.40;68.90;;;;;;7327104;19;9469;-60
2023/12/27 11:48:30;;;;;;;;;;;15.40;69.40;;;;;;7327700;19;9216;-60
2023/12/27 11:50:59;;;;;;;;;;;15.50;68.70;;;;;;7326949;19;9510;-61
2023/12/27 11:53:32;;;;;;;;;;;15.60;68.70;;;;;;7327541;19;9179;-60
2023/12/27 11:56:02;;;;;;;;;;;15.60;68.60;;;;;;7326381;19;9673;-61
2023/12/27 11:58:36;;;;;;;;;;;15.70;68.60;;;;;;7327087;19;9315;-61
2023/12/27 12:01:22;;;;;;;;;;;15.70;68.50;;;;;;7326252;19;9478;-60
2023/12/27 12:04:06;;;;;;;;;;;15.70;68.40;;;;;;7326471;19;9513;-60
2023/12/27 12:06:54;;;;;;;;;;;15.70;68.30;;;;;;7327140;19;9495;-61
2023/12/27 12:09:33;;;;;;;;;;;15.80;68.30;;;;;;7326538;19;9774;-61
2023/12/27 12:12:12;;;;;;;;;;;15.80;68.20;;;;;;7324641;19;9535;-61
2023/12/27 12:14:42;;;;;;;;;;;15.80;68.20;;;;;;7326823;19;9230;-61
2023/12/27 12:17:12;;;;;;;;;;;15.80;68.20;;;;;;7326762;19;9490;-60
2023/12/27 12:19:41;;;;;;;;;;;15.80;68.10;;;;;;7326286;19;9261;-61
2023/12/27 12:22:11;;;;;;;;;;;15.80;68.20;;;;;;7326545;19;10416;-60
2023/12/27 12:24:44;;;;;;;;;;;15.80;68.20;;;;;;7325912;19;10617;-60
2023/12/27 12:27:15;;;;;;;;;;;15.80;68.30;;;;;;7326451;19;9576;-60
2023/12/27 12:29:45;;;;;;;;;;;15.80;68.20;;;;;;7325905;19;9168;-59
2023/12/27 12:32:15;;;;;;;;;;;15.70;68.20;;;;;;7327342;19;9476;-60
2023/12/27 12:34:44;;;;;;;;;;;15.70;68.30;;;;;;7326562;19;9312;-60
2023/12/27 12:37:14;;;;;;;;;;;15.60;68.30;;;;;;7326707;19;9307;-60
2023/12/27 12:39:47;;;;;;;;;;;15.60;68.30;;;;;;7323768;19;10484;-60
2023/12/27 12:42:16;;;;;;;;;;;15.60;68.40;;;;;;7327023;19;9528;-60
2023/12/27 12:45:07;;;;;;;;;;;15.50;68.50;;;;;;7323683;19;9582;-60
2023/12/27 12:47:36;;;;;;;;;;;15.50;68.50;;;;;;7325641;19;9381;-60
2023/12/27 12:50:07;;;;;;;;;;;15.50;68.60;;;;;;7325522;19;10375;-59
2023/12/27 12:52:38;;;;;;;;;;;15.40;68.60;;;;;;7325528;19;9210;-60
2023/12/27 12:55:10;;;;;;;;;;;15.40;68.70;;;;;;7325561;19;9216;-60
2023/12/27 12:57:40;;;;;;;;;;;15.40;68.80;;;;;;7324952;19;9610;-60
2023/12/27 13:00:10;;;;;;;;;;;15.40;68.80;;;;;;7325967;19;9461;-60
2023/12/27 13:02:40;;;;;;;;;;;15.30;68.80;;;;;;7324109;19;9520;-60
2023/12/27 13:05:14;;;;;;;;;;;15.20;68.80;;;;;;7325333;19;9213;-60
2023/12/27 13:07:45;;;;;;;;;;;15.30;68.90;;;;;;7324971;19;9458;-60
2023/12/27 13:10:18;;;;;;;;;;;15.20;69.00;;;;;;7325719;19;8995;-60
2023/12/27 13:12:47;;;;;;;;;;;15.20;69.00;;;;;;7325210;19;9808;-60
2023/12/27 13:15:19;;;;;;;;;;;15.20;69.00;;;;;;7325068;19;10427;-60
2023/12/27 13:17:48;;;;;;;;;;;15.10;69.10;;;;;;7325639;19;9174;-60
2023/12/27 13:20:18;;;;;;;;;;;15.10;69.10;;;;;;7324543;19;9210;-59
2023/12/27 13:22:47;;;;;;;;;;;15.10;69.70;;;;;;7325384;19;9653;-60
2023/12/27 13:25:20;;;;;;;;;;;15.10;69.20;;;;;;7324567;19;9268;-60
2023/12/27 13:27:49;;;;;;;;;;;15.10;69.30;;;;;;7325842;19;9237;-60
2023/12/27 13:30:19;;;;;;;;;;;15.00;69.30;;;;;;7323970;19;9469;-60
2023/12/27 13:32:48;;;;;;;;;;;15.00;69.30;;;;;;7325534;19;9453;-60
2023/12/27 13:35:16;;;;;;;;;;;15.00;69.40;;;;;;7324661;19;11569;-60
2023/12/27 13:37:45;;;;;;;;;;;15.00;69.40;;;;;;7324801;19;9446;-60
2023/12/27 13:40:15;;;;;;;;;;;15.00;69.40;;;;;;7324668;19;9182;-60
2023/12/27 13:42:46;;;;;;;;;;;15.00;69.50;;;;;;7323943;19;9514;-60
2023/12/27 13:45:15;;;;;;;;;;;15.00;69.50;;;;;;7323861;19;9260;-60
2023/12/27 13:47:44;;;;;;;;;;;15.00;69.40;;;;;;7323907;19;9324;-61
2023/12/27 13:50:13;;;;;;;;;;;15.00;69.30;;;;;;7324505;19;9414;-61
2023/12/27 13:53:02;;;;;;;;;;;15.10;69.30;;;;;;7322800;19;9565;-61
2023/12/27 13:55:32;;;;;;;;;;;15.20;69.20;;;;;;7322778;19;9513;-61
2023/12/27 13:58:04;;;;;;;;;;;15.20;69.10;;;;;;7324534;19;9317;-61
2023/12/27 14:00:33;;;;;;;;;;;15.30;69.00;;;;;;7322915;19;10318;-60
2023/12/27 14:03:02;;;;;;;;;;;15.30;68.90;;;;;;7324366;19;9497;-61
2023/12/27 14:05:32;;;;;;;;;;;15.40;68.80;;;;;;7322897;19;9587;-61
2023/12/27 14:08:01;;;;;;;;;;;15.50;68.80;;;;;;7324055;19;9422;-60
2023/12/27 14:10:30;;;;;;;;;;;15.50;68.70;;;;;;7323371;19;9266;-60
2023/12/27 14:12:59;;;;;;;;;;;15.60;68.60;;;;;;7323902;19;9536;-60
2023/12/27 14:15:30;;;;;;;;;;;15.60;68.50;;;;;;7322079;19;9445;-61
2023/12/27 14:17:59;;;;;;;;;;;15.70;68.40;;;;;;7323526;19;9394;-61
2023/12/27 14:20:29;;;;;;;;;;;15.70;68.40;;;;;;7322602;19;9413;-60
2023/12/27 14:22:58;;;;;;;;;;;15.70;68.30;;;;;;7324426;19;9518;-60
2023/12/27 14:25:48;;;;;;;;;;;15.80;68.30;;;;;;7321702;19;10216;-60
2023/12/27 14:28:17;;;;;;;;;;;15.80;68.80;;;;;;7322719;19;9431;-61
2023/12/27 14:30:48;;;;;;;;;;;15.80;68.20;;;;;;7323367;19;9213;-60
2023/12/27 14:33:17;;;;;;;;;;;15.80;68.20;;;;;;7322214;19;9460;-60
2023/12/27 14:35:46;;;;;;;;;;;15.80;68.20;;;;;;7322638;19;9442;-60
2023/12/27 14:38:15;;;;;;;;;;;15.80;68.10;;;;;;7322432;19;9381;-59
2023/12/27 14:40:44;;;;;;;;;;;15.80;68.10;;;;;;7323135;19;9454;-60
2023/12/27 14:43:13;;;;;;;;;;;15.80;68.10;;;;;;7323093;19;9648;-60
2023/12/27 14:45:43;;;;;;;;;;;15.70;68.20;;;;;;7322708;19;10142;-60
2023/12/27 14:48:15;;;;;;;;;;;15.70;68.20;;;;;;7322681;19;9487;-61
2023/12/27 14:50:43;;;;;;;;;;;15.70;68.80;;;;;;7322419;19;9181;-60
2023/12/27 14:53:12;;;;;;;;;;;15.70;68.30;;;;;;7322439;19;9399;-61
2023/12/27 14:55:41;;;;;;;;;;;15.60;68.30;;;;;;7321255;19;9579;-60
2023/12/27 14:58:10;;;;;;;;;;;15.60;68.30;;;;;;7321848;19;9294;-61
2023/12/27 15:00:40;;;;;;;;;;;15.60;68.40;;;;;;7321216;19;9308;-61
2023/12/27 15:03:14;;;;;;;;;;;15.50;68.40;;;;;;7322646;19;10398;-61
2023/12/27 15:05:44;;;;;;;;;;;15.50;68.50;;;;;;7321547;19;9355;-60
2023/12/27 15:08:14;;;;;;;;;;;15.50;68.60;;;;;;7322569;19;11166;-61
2023/12/27 15:10:43;;;;;;;;;;;15.50;68.60;;;;;;7321560;19;9205;-61